Time;durP1;ratioP1;P1;durP2;ratioP2;P2;SDS_P1;SDS_P2;PMS_P1;PMS_P2;Temp;Humidity;BMP_temperature;BMP_pressure;BME280_temperature;BME280_humidity;BME280_pressure;Samples;Min_cycle;Max_cycle;Signal;HPM_P1;HPM_P2
2023/07/02 00:00:01;;;;;;;5.20;3.45;;;;;;;21.18;50.40;99270.25;10391799;28;20579;-39
2023/07/02 00:05:03;;;;;;;3.28;2.97;;;;;;;20.33;52.63;99291.28;10379750;28;20225;-39
2023/07/02 00:10:05;;;;;;;3.92;3.03;;;;;;;19.82;53.29;99333.22;10392682;28;20260;-38
2023/07/02 00:15:08;;;;;;;3.42;3.03;;;;;;;20.03;53.61;99260.09;10392330;28;20283;-36
2023/07/02 00:20:17;;;;;;;5.30;2.90;;;;;;;20.51;52.11;99247.38;10393180;28;20209;-41
2023/07/02 00:25:19;;;;;;;3.28;2.97;;;;;;;20.06;53.17;99292.19;10395117;28;20237;-37
2023/07/02 00:30:20;;;;;;;3.38;3.03;;;;;;;20.28;52.05;99311.91;10396224;28;20236;-35
2023/07/02 00:35:22;;;;;;;3.45;3.13;;;;;;;20.71;52.16;99276.56;10395792;28;20225;-37
2023/07/02 00:40:26;;;;;;;4.25;3.33;;;;;;;20.76;52.27;99233.09;10389166;28;20212;-38
2023/07/02 00:45:29;;;;;;;3.55;3.25;;;;;;;19.99;53.39;99313.28;10386297;28;20596;-36
2023/07/02 00:50:31;;;;;;;5.22;3.28;;;;;;;20.19;53.44;99289.03;10386346;28;20575;-35
2023/07/02 00:55:33;;;;;;;7.53;3.33;;;;;;;19.55;55.24;99284.34;10394497;28;20235;-37
2023/07/02 01:00:34;;;;;;;3.83;3.08;;;;;;;19.49;54.10;99328.81;10390315;28;21082;-36
2023/07/02 01:05:36;;;;;;;3.20;2.90;;;;;;;18.97;55.02;99349.88;10386864;28;20233;-35
2023/07/02 01:10:38;;;;;;;4.55;3.40;;;;;;;18.97;55.34;99311.94;10399118;28;20255;-37
2023/07/02 01:15:41;;;;;;;4.00;3.38;;;;;;;18.44;56.13;99327.72;10387027;28;20229;-36
2023/07/02 01:20:43;;;;;;;3.67;3.00;;;;;;;17.83;57.51;99297.75;10397839;28;20216;-38
2023/07/02 01:25:45;;;;;;;5.47;3.30;;;;;;;17.29;58.11;99324.28;10392855;28;20244;-35
2023/07/02 01:30:47;;;;;;;5.17;3.57;;;;;;;18.79;55.88;99218.19;10388538;28;20205;-34
2023/07/02 01:35:50;;;;;;;4.73;3.30;;;;;;;18.16;55.78;99260.09;10392193;28;20682;-33
2023/07/02 01:40:52;;;;;;;5.20;3.50;;;;;;;18.45;54.57;99260.81;10394268;28;20307;-35
2023/07/02 01:45:55;;;;;;;4.60;3.10;;;;;;;17.35;54.73;99337.66;10399778;28;20275;-35
2023/07/02 01:50:57;;;;;;;4.57;3.00;;;;;;;16.97;54.73;99382.31;10389214;28;20209;-36
2023/07/02 01:55:59;;;;;;;3.27;2.83;;;;;;;16.88;54.96;99378.28;10397797;28;20701;-38
2023/07/02 02:01:01;;;;;;;5.00;2.97;;;;;;;17.83;53.54;99299.59;10389988;28;20544;-35
2023/07/02 02:06:03;;;;;;;7.97;3.97;;;;;;;17.91;52.81;99320.84;10392821;28;20229;-35
2023/07/02 02:11:05;;;;;;;4.63;3.53;;;;;;;17.11;53.62;99398.28;10395668;28;20228;-35
2023/07/02 02:16:06;;;;;;;4.57;3.43;;;;;;;17.43;52.97;99387.88;10395307;28;20253;-35
2023/07/02 02:21:08;;;;;;;5.33;3.20;;;;;;;17.91;52.24;99347.94;10393166;28;20215;-41
2023/07/02 02:26:10;;;;;;;5.80;3.57;;;;;;;18.33;52.29;99336.75;10391678;28;20240;-38
2023/07/02 02:31:12;;;;;;;5.30;3.40;;;;;;;19.01;50.78;99328.50;10391048;28;20314;-37
2023/07/02 02:36:14;;;;;;;7.97;3.10;;;;;;;19.58;49.74;99355.22;10394651;28;20228;-35
2023/07/02 02:41:16;;;;;;;5.40;3.37;;;;;;;18.78;51.41;99346.63;10393328;28;20205;-37
2023/07/02 02:46:24;;;;;;;6.10;3.50;;;;;;;19.01;50.82;99350.19;10392343;28;20257;-33
2023/07/02 02:51:26;;;;;;;5.77;3.27;;;;;;;18.67;50.85;99409.06;10386701;28;20259;-37
2023/07/02 02:56:27;;;;;;;4.00;3.13;;;;;;;19.88;49.74;99336.81;10391619;28;20224;-35
2023/07/02 03:01:30;;;;;;;5.10;3.50;;;;;;;19.13;50.09;99416.00;10384935;28;20208;-35
2023/07/02 03:06:32;;;;;;;6.77;3.73;;;;;;;19.47;49.97;99379.78;10386735;28;20232;-38
2023/07/02 03:11:34;;;;;;;10.20;3.47;;;;;;;18.07;52.66;99395.88;10385970;28;20237;-35
2023/07/02 03:16:37;;;;;;;6.97;3.60;;;;;;;18.69;51.88;99342.69;10382518;28;20283;-37
2023/07/02 03:21:45;;;;;;;6.87;3.77;;;;;;;17.98;52.89;99418.16;10385248;28;20591;-35
2023/07/02 03:26:46;;;;;;;4.27;3.60;;;;;;;18.94;50.98;99382.09;10385987;28;20928;-38
2023/07/02 03:31:48;;;;;;;6.27;3.80;;;;;;;18.27;52.25;99400.81;10390723;28;20706;-37
2023/07/02 03:36:50;;;;;;;8.67;3.63;;;;;;;18.89;51.76;99327.78;10391687;28;20299;-37
2023/07/02 03:41:52;;;;;;;7.60;3.70;;;;;;;18.78;51.05;99400.81;10394452;28;20240;-38
2023/07/02 03:46:54;;;;;;;7.47;3.67;;;;;;;18.77;50.99;99430.88;10393131;28;20232;-36
2023/07/02 03:51:55;;;;;;;6.43;3.93;;;;;;;18.32;51.70;99462.41;10391928;28;20233;-37
2023/07/02 03:56:57;;;;;;;8.07;4.40;;;;;;;17.63;53.29;99444.28;10402859;28;20279;-42
2023/07/02 04:01:59;;;;;;;4.57;3.77;;;;;;;18.39;51.91;99430.56;10398971;28;20235;-38
2023/07/02 04:07:01;;;;;;;7.00;3.80;;;;;;;18.58;51.64;99409.47;10389315;28;20244;-35
2023/07/02 04:12:04;;;;;;;5.83;3.87;;;;;;;16.96;54.31;99488.78;10393018;28;20241;-40
2023/07/02 04:17:05;;;;;;;5.97;4.13;;;;;;;17.18;54.41;99444.94;10391119;28;20338;-36
2023/07/02 04:22:07;;;;;;;10.53;4.33;;;;;;;18.46;52.01;99431.22;10396608;28;20213;-38
2023/07/02 04:27:09;;;;;;;4.63;3.83;;;;;;;18.93;50.25;99459.06;10391631;28;20233;-39
2023/07/02 04:32:31;;;;;;;6.13;3.70;;;;;;;19.47;49.70;99409.63;10392127;28;20235;-42
2023/07/02 04:37:33;;;;;;;7.00;3.40;;;;;;;19.52;49.53;99429.50;10395346;28;20222;-37
2023/07/02 04:42:39;;;;;;;5.57;4.20;;;;;;;19.29;50.04;99449.56;10391786;28;20910;-38
2023/07/02 04:47:45;;;;;;;8.00;4.17;;;;;;;18.57;51.68;99459.28;10389763;28;20257;-35
2023/07/02 04:52:47;;;;;;;8.80;4.07;;;;;;;18.12;53.10;99459.28;10392949;28;20683;-37
2023/07/02 04:57:48;;;;;;;5.93;3.87;;;;;;;17.91;52.95;99492.19;10394977;28;20224;-39
2023/07/02 05:02:50;;;;;;;6.17;4.30;;;;;;;18.90;51.50;99437.88;10387405;28;20213;-40
2023/07/02 05:07:54;;;;;;;7.27;4.23;;;;;;;17.87;52.90;99436.09;10392268;28;20694;-36
2023/07/02 05:12:56;;;;;;;6.10;3.80;;;;;;;17.61;52.20;99505.06;10386732;28;20240;-39
2023/07/02 05:17:57;;;;;;;5.57;4.00;;;;;;;18.68;50.24;99446.75;10391650;28;20216;-37
2023/07/02 05:22:59;;;;;;;4.93;3.50;;;;;;;17.41;52.35;99505.44;10390635;28;20215;-38
2023/07/02 05:28:01;;;;;;;5.20;3.37;;;;;;;17.36;52.96;99489.94;10387541;28;20298;-38
2023/07/02 05:33:03;;;;;;;7.53;4.37;;;;;;;18.50;50.99;99452.41;10393038;28;20251;-37
2023/07/02 05:38:04;;;;;;;7.87;3.97;;;;;;;18.40;50.76;99532.41;10391421;28;20197;-38
2023/07/02 05:43:06;;;;;;;4.70;3.73;;;;;;;18.62;50.56;99537.13;10386891;28;20212;-39
2023/07/02 05:48:08;;;;;;;6.17;4.10;;;;;;;19.65;48.77;99484.50;10393136;28;20230;-39
2023/07/02 05:53:10;;;;;;;10.53;5.33;;;;;;;18.31;51.43;99541.19;10385249;28;20275;-36
2023/07/02 05:58:12;;;;;;;8.47;5.73;;;;;;;17.16;52.92;99577.63;10390331;28;20463;-37
2023/07/02 06:03:20;;;;;;;9.00;5.90;;;;;;;17.36;51.94;99580.00;10390447;28;20212;-40
2023/07/02 06:08:22;;;;;;;8.07;5.90;;;;;;;17.94;50.93;99536.91;10390379;28;20255;-38
2023/07/02 06:13:23;;;;;;;8.27;5.67;;;;;;;18.00;50.89;99544.09;10384687;28;20240;-37
2023/07/02 06:18:26;;;;;;;8.20;6.00;;;;;;;18.91;49.06;99497.25;10387105;28;20208;-37
2023/07/02 06:23:29;;;;;;;10.17;6.57;;;;;;;17.44;51.00;99595.03;10386153;28;20236;-36
2023/07/02 06:28:31;;;;;;;11.37;7.07;;;;;;;18.92;48.93;99527.88;10390329;28;20729;-37
2023/07/02 06:33:33;;;;;;;12.73;7.63;;;;;;;18.35;49.62;99548.56;10389086;28;20256;-39
2023/07/02 06:38:35;;;;;;;12.80;7.40;;;;;;;18.28;49.53;99573.09;10383650;28;20201;-38
2023/07/02 06:43:37;;;;;;;10.77;6.53;;;;;;;17.68;50.41;99570.72;10384533;28;20225;-37
2023/07/02 06:48:39;;;;;;;10.70;7.13;;;;;;;19.08;48.32;99518.13;10384109;28;20241;-38
2023/07/02 06:53:41;;;;;;;12.47;7.63;;;;;;;17.51;49.24;99662.56;10384144;28;20228;-40
2023/07/02 06:58:43;;;;;;;12.23;7.60;;;;;;;19.30;47.34;99524.44;10390241;28;20209;-40
2023/07/02 07:03:45;;;;;;;12.23;8.10;;;;;;;19.07;48.09;99562.59;10382904;28;20237;-38
2023/07/02 07:08:47;;;;;;;15.65;8.32;;;;;;;20.01;46.94;99521.06;10382902;28;20222;-37
2023/07/02 07:13:51;;;;;;;13.20;8.40;;;;;;;18.10;49.47;99633.66;10390708;28;20602;-36
2023/07/02 07:18:53;;;;;;;12.90;8.60;;;;;;;18.68;48.86;99525.34;10391358;28;20197;-40
2023/07/02 07:23:55;;;;;;;14.30;8.32;;;;;;;18.71;48.52;99564.66;10397188;28;20331;-37
2023/07/02 07:28:57;;;;;;;12.63;8.05;;;;;;;18.90;48.26;99586.97;10393819;28;20272;-40
2023/07/02 07:33:59;;;;;;;13.38;8.50;;;;;;;19.12;47.68;99603.34;10388462;28;20278;-39
2023/07/02 07:39:01;;;;;;;14.57;10.38;;;;;;;18.78;48.07;99644.75;10400214;28;20239;-37
2023/07/02 07:44:03;;;;;;;14.97;9.97;;;;;;;18.56;48.53;99611.28;10391899;28;20483;-39
2023/07/02 07:49:05;;;;;;;15.65;10.20;;;;;;;19.63;47.03;99579.75;10393453;28;20252;-39
2023/07/02 07:54:07;;;;;;;17.10;10.20;;;;;;;19.87;46.49;99565.94;10392244;28;20232;-38
2023/07/02 07:59:08;;;;;;;20.85;11.85;;;;;;;18.97;47.08;99629.13;10394043;28;20208;-40
2023/07/02 08:04:10;;;;;;;20.25;11.90;;;;;;;19.75;45.80;99595.91;10387183;28;20237;-39
2023/07/02 08:09:12;;;;;;;16.95;11.07;;;;;;;19.27;46.10;99581.09;10392766;28;20225;-38
2023/07/02 08:14:14;;;;;;;17.83;11.32;;;;;;;19.61;46.19;99608.22;10396537;28;20260;-39
2023/07/02 08:19:16;;;;;;;15.20;10.90;;;;;;;20.67;44.57;99542.69;10390912;28;20233;-39
2023/07/02 08:24:17;;;;;;;16.98;10.77;;;;;;;18.58;47.49;99595.59;10395330;28;20229;-34
2023/07/02 08:29:19;;;;;;;17.05;11.75;;;;;;;19.42;46.31;99577.75;10390294;28;20726;-37
2023/07/02 08:34:21;;;;;;;15.52;10.95;;;;;;;20.91;44.38;99498.84;10381928;28;20679;-39
2023/07/02 08:39:23;;;;;;;20.50;12.40;;;;;;;18.96;46.24;99610.41;10385374;28;20236;-35
2023/07/02 08:44:26;;;;;;;17.67;11.88;;;;;;;19.82;45.81;99498.00;10394241;28;20599;-38
2023/07/02 08:49:28;;;;;;;16.55;11.32;;;;;;;20.25;44.25;99528.94;10382967;28;20623;-39
2023/07/02 08:54:30;;;;;;;22.27;12.35;;;;;;;20.28;44.00;99547.47;10394793;28;20318;-39
2023/07/02 08:59:32;;;;;;;19.75;13.75;;;;;;;19.84;44.01;99596.31;10384615;28;20213;-39
2023/07/02 09:04:34;;;;;;;19.77;12.38;;;;;;;20.33;43.76;99550.22;10383786;28;20225;-35
2023/07/02 09:09:46;;;;;;;17.70;11.80;;;;;;;19.96;44.08;99602.47;10393626;28;20256;-37
2023/07/02 09:15:05;;;;;;;19.38;12.10;;;;;;;19.63;44.06;99551.78;10384920;28;20224;-38
2023/07/02 09:20:08;;;;;;;16.38;12.05;;;;;;;20.00;43.72;99507.72;10388271;28;20213;-35
2023/07/02 09:25:11;;;;;;;18.00;11.93;;;;;;;20.77;43.13;99527.59;10391701;28;20245;-36
2023/07/02 09:30:18;;;;;;;17.45;12.00;;;;;;;19.11;44.52;99520.34;10393224;28;20214;-37
2023/07/02 09:35:19;;;;;;;19.48;12.20;;;;;;;20.01;44.11;99528.34;10382274;28;20224;-39
2023/07/02 09:40:24;;;;;;;20.33;11.85;;;;;;;20.31;43.08;99525.19;10386805;28;20221;-38
2023/07/02 09:45:27;;;;;;;17.13;11.98;;;;;;;20.30;43.42;99483.63;10383573;28;20243;-35
2023/07/02 09:50:30;;;;;;;17.70;11.75;;;;;;;21.09;42.81;99492.19;10388317;28;20636;-37
2023/07/02 09:55:32;;;;;;;18.55;12.95;;;;;;;19.48;43.53;99582.19;10388273;28;20240;-38
2023/07/02 10:00:35;;;;;;;19.20;11.85;;;;;;;21.82;40.93;99499.66;10385754;28;20213;-39
2023/07/02 10:05:36;;;;;;;17.00;11.30;;;;;;;19.10;42.35;99619.06;10391028;28;20236;-39
2023/07/02 10:10:39;;;;;;;16.25;10.63;;;;;;;18.93;43.37;99575.63;10385554;28;20283;-36
2023/07/02 10:15:41;;;;;;;21.42;11.90;;;;;;;21.23;41.06;99528.72;10380620;28;20462;-38
2023/07/02 10:20:43;;;;;;;17.25;11.13;;;;;;;21.60;41.88;99508.00;10386238;28;20551;-39
2023/07/02 10:25:45;;;;;;;16.38;11.02;;;;;;;20.82;40.88;99546.66;10386946;28;20526;-39
2023/07/02 10:30:47;;;;;;;18.70;11.25;;;;;;;21.36;40.29;99538.38;10386503;28;20239;-38
2023/07/02 10:35:49;;;;;;;18.92;11.20;;;;;;;20.42;40.86;99588.63;10383786;28;20230;-37
2023/07/02 10:41:00;;;;;;;18.50;12.02;;;;;;;22.26;40.28;99498.47;10391856;28;20275;-37
2023/07/02 10:46:02;;;;;;;16.70;10.90;;;;;;;22.14;39.40;99512.31;10383220;28;20237;-39
2023/07/02 10:51:12;;;;;;;16.50;11.27;;;;;;;20.67;39.59;99542.69;10385577;28;20633;-38
2023/07/02 10:56:17;;;;;;;17.70;11.65;;;;;;;21.52;40.35;99486.75;10389140;28;20224;-37
2023/07/02 11:06:21;;;;;;;20.10;11.77;;;;;;;18.44;43.82;99402.75;10447800;27;20883;-66
2023/07/02 11:11:24;;;;;;;18.15;11.48;;;;;;;19.68;42.25;99444.09;10413778;28;20616;-67
2023/07/02 11:16:29;;;;;;;18.02;11.95;;;;;;;19.28;42.83;99438.94;10410067;28;20296;-66
2023/07/02 11:21:31;;;;;;;16.83;11.38;;;;;;;22.01;39.63;99436.56;10409287;28;20312;-67
2023/07/02 11:26:40;;;;;;;17.00;10.90;;;;;;;21.07;40.12;99430.97;10412827;28;20228;-66
2023/07/02 11:31:42;;;;;;;18.48;11.48;;;;;;;21.49;39.81;99416.50;10407532;28;20730;-67
2023/07/02 11:36:44;;;;;;;17.77;11.00;;;;;;;21.88;37.99;99426.97;10407300;28;20216;-66
2023/07/02 11:41:48;;;;;;;15.85;10.77;;;;;;;21.56;38.23;99442.41;10414097;28;20330;-67
2023/07/02 11:46:50;;;;;;;12.35;10.13;;;;;;;21.84;38.51;99469.44;10414219;28;20254;-67
2023/07/02 11:51:52;;;;;;;16.80;10.60;;;;;;;21.47;38.02;99454.88;10407163;28;20335;-67
2023/07/02 11:56:53;;;;;;;16.73;10.73;;;;;;;22.12;39.66;99443.66;10412604;28;20212;-67
2023/07/02 12:01:55;;;;;;;15.65;10.23;;;;;;;22.22;36.95;99490.00;10414999;28;20238;-67
2023/07/02 12:06:57;;;;;;;17.13;10.73;;;;;;;22.24;36.62;99481.56;10415981;28;20685;-67
2023/07/02 12:11:59;;;;;;;15.57;10.02;;;;;;;20.96;36.80;99545.13;10417985;28;20232;-67
2023/07/02 12:17:01;;;;;;;13.55;9.43;;;;;;;21.70;36.14;99502.63;10394245;28;20213;-67
2023/07/02 12:22:06;;;;;;;15.32;10.43;;;;;;;21.64;36.18;99467.47;10378210;28;20236;-66
2023/07/02 12:27:08;;;;;;;14.70;9.85;;;;;;;22.14;36.30;99455.13;10396329;28;20240;-67
2023/07/02 12:32:10;;;;;;;14.60;9.70;;;;;;;20.53;37.23;99511.56;10391232;28;20737;-66
2023/07/02 12:37:17;;;;;;;17.05;11.30;;;;;;;23.32;36.60;99405.94;10385561;28;20678;-67
2023/07/02 12:42:18;;;;;;;19.23;10.82;;;;;;;22.65;36.14;99397.09;10385059;28;20291;-66
2023/07/02 12:47:20;;;;;;;18.17;10.45;;;;;;;23.70;35.45;99419.16;10390055;28;20607;-67
2023/07/02 12:52:22;;;;;;;16.17;10.23;;;;;;;22.41;35.74;99454.88;10389960;28;20232;-67
2023/07/02 12:57:26;;;;;;;15.82;8.90;;;;;;;23.87;33.65;99384.13;10382348;28;20266;-66
2023/07/02 13:02:28;;;;;;;15.20;9.38;;;;;;;22.67;34.14;99485.72;10373083;28;20237;-66
2023/07/02 13:07:30;;;;;;;16.38;10.23;;;;;;;22.44;34.58;99432.50;10380584;28;20297;-67
2023/07/02 13:12:32;;;;;;;15.30;9.93;;;;;;;22.49;34.21;99440.69;10369129;28;20218;-66
2023/07/02 13:17:33;;;;;;;12.40;9.02;;;;;;;23.32;34.95;99378.66;10378003;28;20597;-66
2023/07/02 13:22:37;;;;;;;14.85;8.82;;;;;;;21.92;34.33;99455.31;10376571;28;20237;-67
2023/07/02 13:27:39;;;;;;;14.02;9.20;;;;;;;22.97;33.74;99417.75;10372985;28;20375;-66
2023/07/02 13:32:40;;;;;;;11.52;8.13;;;;;;;22.37;33.47;99459.25;10381605;28;20240;-65
2023/07/02 13:37:42;;;;;;;13.85;9.00;;;;;;;22.94;34.33;99418.31;10383060;28;20239;-67
2023/07/02 13:42:44;;;;;;;14.02;9.23;;;;;;;23.34;33.78;99414.66;10383293;28;20948;-64
2023/07/02 13:47:46;;;;;;;14.00;8.85;;;;;;;21.68;33.92;99442.16;10383510;28;20259;-65
2023/07/02 13:52:49;;;;;;;12.90;8.82;;;;;;;22.69;33.34;99358.09;10374583;28;20224;-65
2023/07/02 13:57:51;;;;;;;15.48;9.13;;;;;;;24.07;33.64;99409.66;10374694;28;20240;-65
2023/07/02 14:02:53;;;;;;;15.07;9.23;;;;;;;21.90;33.64;99466.47;10381361;28;20324;-66
2023/07/02 14:07:55;;;;;;;15.48;9.40;;;;;;;22.92;33.00;99409.59;10378105;28;20303;-65
2023/07/02 14:12:57;;;;;;;13.85;9.45;;;;;;;23.22;33.36;99330.38;10378967;28;20252;-64
2023/07/02 14:17:58;;;;;;;13.25;9.00;;;;;;;23.69;31.90;99341.88;10372546;28;20223;-65
2023/07/02 14:23:00;;;;;;;13.05;7.82;;;;;;;22.68;32.90;99427.34;10374510;28;20820;-65
2023/07/02 14:28:02;;;;;;;13.60;8.93;;;;;;;22.42;33.27;99374.75;10379672;28;20212;-65
2023/07/02 14:33:05;;;;;;;17.83;9.30;;;;;;;21.98;33.00;99410.66;10373964;28;20225;-64
2023/07/02 14:38:07;;;;;;;14.35;9.15;;;;;;;22.10;33.36;99408.53;10380032;28;20228;-65
2023/07/02 14:43:09;;;;;;;17.55;9.70;;;;;;;23.00;33.24;99321.72;10374314;28;20294;-65
2023/07/02 14:48:10;;;;;;;14.68;8.80;;;;;;;23.29;33.00;99401.03;10383523;28;20227;-65
2023/07/02 14:53:12;;;;;;;13.90;8.75;;;;;;;24.08;32.06;99312.91;10374814;28;20282;-64
2023/07/02 14:58:17;;;;;;;13.60;8.82;;;;;;;22.71;33.13;99402.25;10373547;28;20625;-64
2023/07/02 15:03:22;;;;;;;16.40;9.20;;;;;;;22.29;32.90;99406.06;10377445;28;20335;-66
2023/07/02 15:08:24;;;;;;;16.23;8.90;;;;;;;22.52;32.58;99407.47;10381560;28;20216;-65
2023/07/02 15:13:26;;;;;;;12.75;9.02;;;;;;;23.63;32.37;99394.91;10377538;28;20232;-65
2023/07/02 15:18:27;;;;;;;15.45;9.70;;;;;;;23.31;32.67;99377.00;10396517;28;20217;-65
2023/07/02 15:23:31;;;;;;;14.77;9.43;;;;;;;23.60;32.37;99325.25;10377881;28;20229;-64
2023/07/02 15:28:34;;;;;;;15.35;9.68;;;;;;;23.31;32.84;99338.78;10376869;28;20233;-65
2023/07/02 15:33:37;;;;;;;14.48;9.52;;;;;;;23.31;32.21;99373.47;10390122;28;20229;-65
2023/07/02 15:38:39;;;;;;;14.23;9.30;;;;;;;23.56;31.83;99378.78;10375348;28;20210;-66
2023/07/02 15:43:42;;;;;;;14.07;9.25;;;;;;;23.81;32.41;99328.69;10372465;28;20332;-66
2023/07/02 15:48:44;;;;;;;14.63;9.60;;;;;;;23.52;32.04;99390.56;10374364;28;20218;-67
2023/07/02 15:53:46;;;;;;;14.70;9.55;;;;;;;22.53;32.53;99354.56;10383269;28;20997;-65
2023/07/02 15:58:48;;;;;;;16.25;9.02;;;;;;;25.23;30.87;99315.00;10371152;28;20300;-65
2023/07/02 16:03:49;;;;;;;15.50;9.32;;;;;;;22.80;32.34;99369.78;10378860;28;20325;-64
2023/07/02 16:08:52;;;;;;;13.82;8.80;;;;;;;23.40;32.38;99315.28;10388939;28;20209;-65
2023/07/02 16:13:54;;;;;;;13.07;8.77;;;;;;;24.59;31.99;99350.72;10404589;28;20267;-65
2023/07/02 16:18:56;;;;;;;13.07;8.95;;;;;;;23.27;32.60;99359.56;10388263;28;20259;-65
2023/07/02 16:23:57;;;;;;;15.00;8.57;;;;;;;23.42;32.39;99312.25;10380988;28;20518;-67
2023/07/02 16:28:59;;;;;;;15.95;8.52;;;;;;;23.75;32.16;99313.44;10383692;28;20216;-66
2023/07/02 16:34:02;;;;;;;12.40;8.23;;;;;;;23.77;32.29;99316.72;10379470;28;20629;-66
2023/07/02 16:39:04;;;;;;;13.98;8.50;;;;;;;23.69;31.48;99321.97;10374574;28;20205;-66
2023/07/02 16:44:06;;;;;;;15.18;8.27;;;;;;;23.08;32.74;99362.91;10383253;28;20229;-65
2023/07/02 16:49:08;;;;;;;13.38;9.05;;;;;;;23.25;32.64;99332.56;10380608;28;20229;-66
2023/07/02 16:54:15;;;;;;;14.70;8.98;;;;;;;24.06;31.91;99312.38;10383415;28;20790;-66
2023/07/02 16:59:19;;;;;;;18.50;9.25;;;;;;;23.08;33.11;99308.34;10375549;28;20309;-65
2023/07/02 17:04:22;;;;;;;12.75;8.60;;;;;;;24.41;32.20;99357.75;10373992;28;20339;-66
2023/07/02 17:09:34;;;;;;;14.30;8.90;;;;;;;23.70;32.90;99313.50;10377833;28;20612;-65
2023/07/02 17:14:37;;;;;;;14.68;9.27;;;;;;;22.89;33.86;99361.84;10372515;28;20210;-67
2023/07/02 17:19:44;;;;;;;13.82;9.50;;;;;;;23.81;33.24;99278.69;10375923;28;20237;-66
2023/07/02 17:24:49;;;;;;;14.00;9.13;;;;;;;23.12;33.75;99338.59;10365609;28;20320;-66
2023/07/02 17:29:52;;;;;;;14.30;9.20;;;;;;;23.28;33.55;99368.56;10370587;28;20237;-66
2023/07/02 17:34:55;;;;;;;14.13;8.55;;;;;;;23.58;33.57;99335.66;9462699;28;10000225;-64
2023/07/02 17:39:57;;;;;;;14.73;9.05;;;;;;;21.70;34.62;99382.00;10375625;28;20236;-68
2023/07/02 17:44:59;;;;;;;15.00;9.13;;;;;;;23.16;34.18;99292.47;10375193;28;20398;-66
2023/07/02 17:50:01;;;;;;;16.60;9.50;;;;;;;22.57;34.49;99359.47;10373108;28;20935;-64
2023/07/02 17:55:05;;;;;;;14.65;8.40;;;;;;;23.40;33.86;99295.38;10381769;28;20328;-66
2023/07/02 18:00:08;;;;;;;12.98;8.63;;;;;;;24.02;33.22;99265.66;10372122;28;20708;-66
2023/07/02 18:05:10;;;;;;;14.82;8.25;;;;;;;21.58;34.98;99346.84;10376643;28;20708;-67
2023/07/02 18:10:12;;;;;;;13.60;8.50;;;;;;;21.99;34.83;99280.75;10373623;28;20256;-65
2023/07/02 18:15:14;;;;;;;14.30;8.13;;;;;;;21.87;34.98;99300.88;10376372;28;20236;-67
2023/07/02 18:20:16;;;;;;;13.60;8.13;;;;;;;22.21;34.59;99286.72;10369061;28;20229;-66
2023/07/02 18:25:17;;;;;;;15.77;8.30;;;;;;;22.34;34.53;99285.34;10375274;28;20236;-68
2023/07/02 18:30:19;;;;;;;12.45;8.15;;;;;;;22.20;34.85;99290.56;10377688;28;20255;-65
2023/07/02 18:35:21;;;;;;;14.63;8.57;;;;;;;21.75;34.86;99341.97;10370270;28;20256;-68
2023/07/02 18:40:23;;;;;;;15.38;8.05;;;;;;;20.81;36.12;99349.25;10366466;28;20308;-66
2023/07/02 18:45:25;;;;;;;12.80;8.50;;;;;;;21.85;35.66;99315.88;10375360;28;20390;-67
2023/07/02 18:50:27;;;;;;;15.38;8.40;;;;;;;22.52;34.66;99363.00;10370799;28;20888;-66
2023/07/02 18:55:29;;;;;;;15.20;8.10;;;;;;;21.93;35.10;99320.75;10371993;28;20296;-68
2023/07/02 19:00:31;;;;;;;13.65;8.85;;;;;;;21.58;35.87;99300.59;10363737;28;20225;-67
2023/07/02 19:05:33;;;;;;;14.23;7.97;;;;;;;19.91;37.20;99363.47;10366030;28;20241;-65
2023/07/02 19:10:34;;;;;;;13.43;7.85;;;;;;;20.62;36.81;99340.69;10370545;28;20341;-67
2023/07/02 19:15:39;;;;;;;13.70;8.43;;;;;;;20.89;36.65;99320.75;10366158;28;20331;-67
2023/07/02 19:20:41;;;;;;;14.50;8.48;;;;;;;20.53;36.80;99344.94;10370689;28;20229;-69
2023/07/02 19:25:44;;;;;;;13.77;8.10;;;;;;;19.90;37.97;99324.59;10371661;28;20228;-66
2023/07/02 19:30:46;;;;;;;11.88;8.50;;;;;;;20.44;36.96;99328.31;10374917;28;20228;-66
2023/07/02 19:35:47;;;;;;;13.55;7.97;;;;;;;20.02;37.97;99308.16;10369984;28;20233;-69
2023/07/02 19:40:54;;;;;;;12.15;8.10;;;;;;;20.21;37.43;99324.06;10374202;28;20316;-68
2023/07/02 19:46:01;;;;;;;14.20;7.80;;;;;;;20.27;37.44;99355.66;10376832;28;20785;-68
2023/07/02 19:51:04;;;;;;;14.43;8.40;;;;;;;20.38;37.00;99361.97;10370016;28;20295;-68
2023/07/02 19:56:08;;;;;;;13.48;8.40;;;;;;;21.02;37.09;99293.88;10370161;28;20217;-66
2023/07/02 20:01:12;;;;;;;11.80;7.25;;;;;;;18.98;39.09;99323.59;10381358;28;20260;-71
2023/07/02 20:06:13;;;;;;;13.23;7.50;;;;;;;18.50;39.47;99315.06;10370218;28;20224;-68
2023/07/02 20:11:15;;;;;;;11.55;6.72;;;;;;;18.49;38.99;99353.22;10376782;28;20230;-67
2023/07/02 20:16:18;;;;;;;16.45;8.20;;;;;;;19.41;38.23;99321.94;10381006;28;20197;-67
2023/07/02 20:21:21;;;;;;;11.25;7.30;;;;;;;18.82;38.85;99377.56;10369069;28;20353;-67
2023/07/02 20:26:23;;;;;;;14.18;7.07;;;;;;;18.63;39.06;99368.09;10373436;28;20283;-65
2023/07/02 20:31:25;;;;;;;12.15;7.68;;;;;;;18.89;38.98;99368.44;10381095;28;20820;-67
2023/07/02 20:36:27;;;;;;;13.98;7.93;;;;;;;18.36;39.62;99398.53;10376386;28;20218;-66
2023/07/02 20:41:29;;;;;;;13.95;7.38;;;;;;;18.48;39.84;99365.16;10377117;28;20280;-68
2023/07/02 20:46:31;;;;;;;12.73;7.10;;;;;;;18.30;39.70;99394.09;10376859;28;20225;-66
2023/07/02 20:51:34;;;;;;;12.60;7.57;;;;;;;18.56;39.64;99383.69;10375358;28;20225;-68
2023/07/02 20:56:38;;;;;;;12.30;7.60;;;;;;;18.67;39.50;99361.09;10368913;28;20297;-67
2023/07/02 21:01:40;;;;;;;13.77;8.07;;;;;;;18.65;39.44;99379.47;10379900;28;20259;-66
2023/07/02 21:06:42;;;;;;;13.70;8.30;;;;;;;19.14;38.98;99370.69;10372153;28;20251;-65
2023/07/02 21:11:44;;;;;;;13.20;7.80;;;;;;;19.07;38.89;99376.31;10374551;28;20267;-68
2023/07/02 21:16:48;;;;;;;12.82;7.03;;;;;;;18.84;39.30;99413.41;10372660;28;21081;-68
2023/07/02 21:21:51;;;;;;;11.48;6.72;;;;;;;20.00;38.34;99374.66;10372535;28;20245;-68
2023/07/02 21:26:53;;;;;;;15.48;7.93;;;;;;;19.55;38.30;99467.03;10364990;28;20727;-68
2023/07/02 21:31:54;;;;;;;12.75;6.95;;;;;;;20.63;37.49;99399.38;10378839;28;20253;-68
2023/07/02 21:36:56;;;;;;;16.05;8.05;;;;;;;21.11;36.79;99494.66;10362510;28;20264;-68
2023/07/02 21:41:58;;;;;;;14.02;7.47;;;;;;;20.86;36.88;99509.69;10368460;28;20264;-68
2023/07/02 21:47:00;;;;;;;13.38;7.15;;;;;;;21.99;36.21;99480.41;10363861;28;20233;-69
2023/07/02 21:52:27;;;;;;;13.00;7.68;;;;;;;21.21;36.87;99502.88;10366091;28;20218;-68
2023/07/02 21:57:29;;;;;;;14.90;7.40;;;;;;;20.40;37.84;99536.44;10358225;28;20596;-68
2023/07/02 22:02:31;;;;;;;12.85;7.50;;;;;;;21.78;35.87;99493.94;10369595;28;20343;-68
2023/07/02 22:07:34;;;;;;;15.23;7.47;;;;;;;21.59;36.08;99528.16;10366807;28;20641;-68
2023/07/02 22:12:35;;;;;;;14.18;7.10;;;;;;;21.11;36.84;99528.09;10374922;28;20229;-69
2023/07/02 22:17:38;;;;;;;13.18;6.97;;;;;;;20.73;37.05;99550.88;10371960;28;20213;-68
2023/07/02 22:22:42;;;;;;;10.02;6.68;;;;;;;21.93;35.77;99470.53;10375407;28;20738;-68
2023/07/02 22:27:44;;;;;;;11.90;6.32;;;;;;;21.56;36.59;99501.44;10367585;28;20624;-70
2023/07/02 22:32:46;;;;;;;13.98;6.97;;;;;;;22.21;35.66;99471.19;10375268;28;20244;-70
2023/07/02 22:37:48;;;;;;;14.18;6.72;;;;;;;21.79;36.50;99492.84;10369235;28;20236;-70
2023/07/02 22:42:50;;;;;;;14.00;6.57;;;;;;;21.84;36.48;99497.50;10366897;28;20703;-70
2023/07/02 22:47:52;;;;;;;13.77;7.47;;;;;;;21.03;37.20;99491.31;10364600;28;20233;-70
2023/07/02 22:52:54;;;;;;;10.57;7.22;;;;;;;21.00;37.55;99485.59;10367314;28;20244;-70
2023/07/02 22:57:56;;;;;;;13.77;7.03;;;;;;;20.01;38.39;99540.06;10364827;28;20209;-70
2023/07/02 23:02:58;;;;;;;13.27;6.97;;;;;;;20.90;37.76;99418.34;10371407;28;20385;-70
2023/07/02 23:08:00;;;;;;;14.63;7.55;;;;;;;20.62;37.46;99492.91;10363276;28;20662;-70
2023/07/02 23:13:02;;;;;;;14.25;7.20;;;;;;;20.52;38.38;99422.97;10362063;28;20288;-70